Terminal Aerodrome Forecast
Issued by NWS Binghamton, NY

Home | Current Version | Previous Version | Text Only | Print | Product List | Glossary On
Versions: 1 2 3 4 5 6 7 8 9 10 11 12 13 14 15
000
FTUS41 KBGM 211129
TAFAVP
TAF
KAVP 211129Z 2112/2212 VRB03KT P6SM FEW250
     FM211700 18007KT P6SM BKN200
     FM220600 VRB03KT P6SM OVC030
     FM220800 VRB03KT P6SM BKN015=

USA.gov is the U.S. government's official web portal to all federal, state and local government web resources and services.